sensor_id;sensor_type;location;lat;lon;timestamp;temperature;humidity
45849;DHT22;31567;54.600;9.842;2024-02-28T00:02:22;5.50;99.90
45849;DHT22;31567;54.600;9.842;2024-02-28T00:06:01;5.50;99.90
45849;DHT22;31567;54.600;9.842;2024-02-28T00:09:41;5.50;99.90
45849;DHT22;31567;54.600;9.842;2024-02-28T00:13:21;5.50;99.90
45849;DHT22;31567;54.600;9.842;2024-02-28T00:17:02;5.40;99.90
45849;DHT22;31567;54.600;9.842;2024-02-28T00:20:44;5.30;99.90
45849;DHT22;31567;54.600;9.842;2024-02-28T00:24:24;5.30;99.90
45849;DHT22;31567;54.600;9.842;2024-02-28T00:28:03;5.30;99.90
45849;DHT22;31567;54.600;9.842;2024-02-28T00:31:43;5.40;99.90
45849;DHT22;31567;54.600;9.842;2024-02-28T00:35:22;5.40;99.90
45849;DHT22;31567;54.600;9.842;2024-02-28T00:39:02;5.30;99.90
45849;DHT22;31567;54.600;9.842;2024-02-28T00:42:43;5.30;99.90
45849;DHT22;31567;54.600;9.842;2024-02-28T00:46:22;5.20;99.90
45849;DHT22;31567;54.600;9.842;2024-02-28T00:50:02;5.20;99.90
45849;DHT22;31567;54.600;9.842;2024-02-28T00:53:42;5.10;99.90
45849;DHT22;31567;54.600;9.842;2024-02-28T00:57:22;5.10;99.90
45849;DHT22;31567;54.600;9.842;2024-02-28T01:01:02;5.10;99.90
45849;DHT22;31567;54.600;9.842;2024-02-28T01:04:41;5.00;99.90
45849;DHT22;31567;54.600;9.842;2024-02-28T01:08:22;5.10;99.90
45849;DHT22;31567;54.600;9.842;2024-02-28T01:12:01;5.00;99.90
45849;DHT22;31567;54.600;9.842;2024-02-28T01:15:41;5.00;99.90
45849;DHT22;31567;54.600;9.842;2024-02-28T01:19:21;5.00;99.90
45849;DHT22;31567;54.600;9.842;2024-02-28T01:23:01;5.00;99.90
45849;DHT22;31567;54.600;9.842;2024-02-28T01:26:40;4.90;99.90
45849;DHT22;31567;54.600;9.842;2024-02-28T01:30:20;4.90;99.90
45849;DHT22;31567;54.600;9.842;2024-02-28T01:34:00;4.80;99.90
45849;DHT22;31567;54.600;9.842;2024-02-28T01:37:39;4.80;99.90
45849;DHT22;31567;54.600;9.842;2024-02-28T01:41:19;4.80;99.90
45849;DHT22;31567;54.600;9.842;2024-02-28T01:44:59;4.80;99.90
45849;DHT22;31567;54.600;9.842;2024-02-28T01:48:38;4.90;99.90
45849;DHT22;31567;54.600;9.842;2024-02-28T01:52:18;4.90;99.90
45849;DHT22;31567;54.600;9.842;2024-02-28T01:55:57;4.90;99.90
45849;DHT22;31567;54.600;9.842;2024-02-28T01:59:37;4.90;99.90
45849;DHT22;31567;54.600;9.842;2024-02-28T02:03:16;5.00;99.90
45849;DHT22;31567;54.600;9.842;2024-02-28T02:06:56;5.00;99.90
45849;DHT22;31567;54.600;9.842;2024-02-28T02:10:37;5.00;99.90
45849;DHT22;31567;54.600;9.842;2024-02-28T02:14:17;5.00;99.90
45849;DHT22;31567;54.600;9.842;2024-02-28T02:17:56;5.00;99.90
45849;DHT22;31567;54.600;9.842;2024-02-28T02:21:50;5.00;99.90
45849;DHT22;31567;54.600;9.842;2024-02-28T02:25:31;5.00;99.90
45849;DHT22;31567;54.600;9.842;2024-02-28T02:29:11;5.00;99.90
45849;DHT22;31567;54.600;9.842;2024-02-28T02:32:50;5.10;99.90
45849;DHT22;31567;54.600;9.842;2024-02-28T02:36:30;5.00;99.90
45849;DHT22;31567;54.600;9.842;2024-02-28T02:40:10;5.10;99.90
45849;DHT22;31567;54.600;9.842;2024-02-28T02:43:50;5.10;99.90
45849;DHT22;31567;54.600;9.842;2024-02-28T02:47:29;5.20;99.90
45849;DHT22;31567;54.600;9.842;2024-02-28T02:51:10;5.20;99.90
45849;DHT22;31567;54.600;9.842;2024-02-28T02:54:49;5.20;99.90
45849;DHT22;31567;54.600;9.842;2024-02-28T02:58:29;5.20;99.90
45849;DHT22;31567;54.600;9.842;2024-02-28T03:02:08;5.20;99.90
45849;DHT22;31567;54.600;9.842;2024-02-28T03:05:48;5.20;99.90
45849;DHT22;31567;54.600;9.842;2024-02-28T03:09:27;5.20;99.90
45849;DHT22;31567;54.600;9.842;2024-02-28T03:13:07;5.20;99.90
45849;DHT22;31567;54.600;9.842;2024-02-28T03:16:46;5.20;99.90
45849;DHT22;31567;54.600;9.842;2024-02-28T03:20:27;5.20;99.90
45849;DHT22;31567;54.600;9.842;2024-02-28T03:24:07;5.20;99.90
45849;DHT22;31567;54.600;9.842;2024-02-28T03:27:47;5.20;99.90
45849;DHT22;31567;54.600;9.842;2024-02-28T03:31:27;5.20;99.90
45849;DHT22;31567;54.600;9.842;2024-02-28T03:35:07;5.10;99.90
45849;DHT22;31567;54.600;9.842;2024-02-28T03:38:48;5.10;99.90
45849;DHT22;31567;54.600;9.842;2024-02-28T03:42:27;5.20;99.90
45849;DHT22;31567;54.600;9.842;2024-02-28T03:46:07;5.20;99.90
45849;DHT22;31567;54.600;9.842;2024-02-28T03:49:46;5.10;99.90
45849;DHT22;31567;54.600;9.842;2024-02-28T03:53:26;5.20;99.90
45849;DHT22;31567;54.600;9.842;2024-02-28T03:57:06;5.10;99.90
45849;DHT22;31567;54.600;9.842;2024-02-28T04:00:45;5.10;99.90
45849;DHT22;31567;54.600;9.842;2024-02-28T04:04:25;5.10;99.90
45849;DHT22;31567;54.600;9.842;2024-02-28T04:08:05;5.10;99.90
45849;DHT22;31567;54.600;9.842;2024-02-28T04:11:44;5.00;99.90
45849;DHT22;31567;54.600;9.842;2024-02-28T04:15:24;5.00;99.90
45849;DHT22;31567;54.600;9.842;2024-02-28T04:19:05;5.00;99.90
45849;DHT22;31567;54.600;9.842;2024-02-28T04:22:44;4.90;99.90
45849;DHT22;31567;54.600;9.842;2024-02-28T04:26:24;4.90;99.90
45849;DHT22;31567;54.600;9.842;2024-02-28T04:30:04;4.90;99.90
45849;DHT22;31567;54.600;9.842;2024-02-28T04:33:44;4.90;99.90
45849;DHT22;31567;54.600;9.842;2024-02-28T04:37:24;4.90;99.90
45849;DHT22;31567;54.600;9.842;2024-02-28T04:41:03;4.80;99.90
45849;DHT22;31567;54.600;9.842;2024-02-28T04:44:43;4.80;99.90
45849;DHT22;31567;54.600;9.842;2024-02-28T04:48:22;4.80;99.90
45849;DHT22;31567;54.600;9.842;2024-02-28T04:52:02;4.80;99.90
45849;DHT22;31567;54.600;9.842;2024-02-28T04:55:41;4.70;99.90
45849;DHT22;31567;54.600;9.842;2024-02-28T04:59:21;4.70;99.90
45849;DHT22;31567;54.600;9.842;2024-02-28T05:03:01;4.70;99.90
45849;DHT22;31567;54.600;9.842;2024-02-28T05:06:40;4.70;99.90
45849;DHT22;31567;54.600;9.842;2024-02-28T05:10:20;4.70;99.90
45849;DHT22;31567;54.600;9.842;2024-02-28T05:13:59;4.70;99.90
45849;DHT22;31567;54.600;9.842;2024-02-28T05:17:39;4.70;99.90
45849;DHT22;31567;54.600;9.842;2024-02-28T05:21:19;4.70;99.90
45849;DHT22;31567;54.600;9.842;2024-02-28T05:24:58;4.70;99.90
45849;DHT22;31567;54.600;9.842;2024-02-28T05:28:38;4.60;99.90
45849;DHT22;31567;54.600;9.842;2024-02-28T05:32:18;4.60;99.90
45849;DHT22;31567;54.600;9.842;2024-02-28T05:35:57;4.60;99.90
45849;DHT22;31567;54.600;9.842;2024-02-28T05:39:38;4.60;99.90
45849;DHT22;31567;54.600;9.842;2024-02-28T05:43:18;4.60;99.90
45849;DHT22;31567;54.600;9.842;2024-02-28T05:46:57;4.60;99.90
45849;DHT22;31567;54.600;9.842;2024-02-28T05:50:37;4.60;99.90
45849;DHT22;31567;54.600;9.842;2024-02-28T05:54:16;4.60;99.90
45849;DHT22;31567;54.600;9.842;2024-02-28T05:57:56;4.50;99.90
45849;DHT22;31567;54.600;9.842;2024-02-28T06:01:36;4.60;99.90
45849;DHT22;31567;54.600;9.842;2024-02-28T06:05:15;4.50;99.90
45849;DHT22;31567;54.600;9.842;2024-02-28T06:08:55;4.60;99.90
45849;DHT22;31567;54.600;9.842;2024-02-28T06:12:35;4.70;99.90
45849;DHT22;31567;54.600;9.842;2024-02-28T06:16:15;4.70;99.90
45849;DHT22;31567;54.600;9.842;2024-02-28T06:19:55;4.80;99.90
45849;DHT22;31567;54.600;9.842;2024-02-28T06:23:35;4.80;99.90
45849;DHT22;31567;54.600;9.842;2024-02-28T06:27:15;4.90;99.90
45849;DHT22;31567;54.600;9.842;2024-02-28T06:30:55;4.90;99.90
45849;DHT22;31567;54.600;9.842;2024-02-28T06:34:35;5.00;99.90
45849;DHT22;31567;54.600;9.842;2024-02-28T06:38:14;5.00;99.90
45849;DHT22;31567;54.600;9.842;2024-02-28T06:41:54;5.00;99.90
45849;DHT22;31567;54.600;9.842;2024-02-28T06:45:33;5.00;99.90
45849;DHT22;31567;54.600;9.842;2024-02-28T06:49:13;5.00;99.90
45849;DHT22;31567;54.600;9.842;2024-02-28T06:52:52;5.10;99.90
45849;DHT22;31567;54.600;9.842;2024-02-28T06:56:33;5.10;99.90
45849;DHT22;31567;54.600;9.842;2024-02-28T07:00:13;5.20;99.90
45849;DHT22;31567;54.600;9.842;2024-02-28T07:03:54;5.20;99.90
45849;DHT22;31567;54.600;9.842;2024-02-28T07:07:33;5.20;99.90
45849;DHT22;31567;54.600;9.842;2024-02-28T07:11:14;5.20;99.90
45849;DHT22;31567;54.600;9.842;2024-02-28T07:14:54;5.20;99.90
45849;DHT22;31567;54.600;9.842;2024-02-28T07:18:34;5.10;99.90
45849;DHT22;31567;54.600;9.842;2024-02-28T07:22:14;5.10;99.90
45849;DHT22;31567;54.600;9.842;2024-02-28T07:25:53;5.10;99.90
45849;DHT22;31567;54.600;9.842;2024-02-28T07:29:33;5.10;99.90
45849;DHT22;31567;54.600;9.842;2024-02-28T07:33:13;5.10;99.90
45849;DHT22;31567;54.600;9.842;2024-02-28T07:36:53;5.10;99.90
45849;DHT22;31567;54.600;9.842;2024-02-28T07:40:32;5.00;99.90
45849;DHT22;31567;54.600;9.842;2024-02-28T07:44:12;5.00;99.90
45849;DHT22;31567;54.600;9.842;2024-02-28T07:47:51;5.00;99.90
45849;DHT22;31567;54.600;9.842;2024-02-28T07:51:31;5.00;99.90
45849;DHT22;31567;54.600;9.842;2024-02-28T07:55:10;4.90;99.90
45849;DHT22;31567;54.600;9.842;2024-02-28T07:58:50;4.90;99.90
45849;DHT22;31567;54.600;9.842;2024-02-28T08:02:29;4.90;99.90
45849;DHT22;31567;54.600;9.842;2024-02-28T08:06:10;4.90;99.90
45849;DHT22;31567;54.600;9.842;2024-02-28T08:09:50;5.00;99.90
45849;DHT22;31567;54.600;9.842;2024-02-28T08:13:30;5.00;99.90
45849;DHT22;31567;54.600;9.842;2024-02-28T08:17:12;5.10;99.90
45849;DHT22;31567;54.600;9.842;2024-02-28T08:20:53;5.10;99.90
45849;DHT22;31567;54.600;9.842;2024-02-28T08:24:32;5.10;99.90
45849;DHT22;31567;54.600;9.842;2024-02-28T08:28:12;5.20;99.90
45849;DHT22;31567;54.600;9.842;2024-02-28T08:31:51;5.20;99.90
45849;DHT22;31567;54.600;9.842;2024-02-28T08:35:31;5.30;99.90
45849;DHT22;31567;54.600;9.842;2024-02-28T08:39:10;5.30;99.90
45849;DHT22;31567;54.600;9.842;2024-02-28T08:42:50;5.40;99.90
45849;DHT22;31567;54.600;9.842;2024-02-28T08:46:32;5.40;99.90
45849;DHT22;31567;54.600;9.842;2024-02-28T08:50:11;5.40;99.90
45849;DHT22;31567;54.600;9.842;2024-02-28T08:53:51;5.40;99.90
45849;DHT22;31567;54.600;9.842;2024-02-28T08:57:33;5.40;99.90
45849;DHT22;31567;54.600;9.842;2024-02-28T09:01:14;5.40;99.90
45849;DHT22;31567;54.600;9.842;2024-02-28T09:04:54;5.50;99.90
45849;DHT22;31567;54.600;9.842;2024-02-28T09:08:36;5.50;99.90
45849;DHT22;31567;54.600;9.842;2024-02-28T09:12:15;5.50;99.90
45849;DHT22;31567;54.600;9.842;2024-02-28T09:15:55;5.60;99.90
45849;DHT22;31567;54.600;9.842;2024-02-28T09:19:34;5.60;99.90
45849;DHT22;31567;54.600;9.842;2024-02-28T09:23:14;5.60;99.90
45849;DHT22;31567;54.600;9.842;2024-02-28T09:26:53;5.60;99.90
45849;DHT22;31567;54.600;9.842;2024-02-28T09:30:33;5.60;99.90
45849;DHT22;31567;54.600;9.842;2024-02-28T09:34:12;5.60;99.90
45849;DHT22;31567;54.600;9.842;2024-02-28T09:37:52;5.60;99.90
45849;DHT22;31567;54.600;9.842;2024-02-28T09:41:32;5.60;99.90
45849;DHT22;31567;54.600;9.842;2024-02-28T09:45:12;5.70;99.90
45849;DHT22;31567;54.600;9.842;2024-02-28T09:48:52;5.70;99.90
45849;DHT22;31567;54.600;9.842;2024-02-28T09:52:33;5.70;99.90
45849;DHT22;31567;54.600;9.842;2024-02-28T09:56:13;5.80;99.90
45849;DHT22;31567;54.600;9.842;2024-02-28T09:59:55;5.80;99.90
45849;DHT22;31567;54.600;9.842;2024-02-28T10:03:36;5.90;99.90
45849;DHT22;31567;54.600;9.842;2024-02-28T10:07:17;5.90;99.90
45849;DHT22;31567;54.600;9.842;2024-02-28T10:10:57;5.90;99.90
45849;DHT22;31567;54.600;9.842;2024-02-28T10:14:37;6.00;99.90
45849;DHT22;31567;54.600;9.842;2024-02-28T10:18:17;5.90;99.90
45849;DHT22;31567;54.600;9.842;2024-02-28T10:21:57;5.90;99.90
45849;DHT22;31567;54.600;9.842;2024-02-28T10:25:46;6.00;99.90
45849;DHT22;31567;54.600;9.842;2024-02-28T10:29:26;6.00;99.90
45849;DHT22;31567;54.600;9.842;2024-02-28T10:33:14;6.10;99.90
45849;DHT22;31567;54.600;9.842;2024-02-28T10:36:54;6.20;99.90
45849;DHT22;31567;54.600;9.842;2024-02-28T10:40:34;6.30;99.90
45849;DHT22;31567;54.600;9.842;2024-02-28T10:44:13;6.40;99.90
45849;DHT22;31567;54.600;9.842;2024-02-28T10:47:54;6.40;99.90
45849;DHT22;31567;54.600;9.842;2024-02-28T10:51:37;6.40;99.90
45849;DHT22;31567;54.600;9.842;2024-02-28T10:55:21;6.40;99.90
45849;DHT22;31567;54.600;9.842;2024-02-28T10:59:06;6.40;99.90
45849;DHT22;31567;54.600;9.842;2024-02-28T11:02:47;6.40;99.90
45849;DHT22;31567;54.600;9.842;2024-02-28T11:06:27;6.40;99.90
45849;DHT22;31567;54.600;9.842;2024-02-28T11:10:07;6.40;99.90
45849;DHT22;31567;54.600;9.842;2024-02-28T11:13:57;6.40;99.90
45849;DHT22;31567;54.600;9.842;2024-02-28T11:17:36;6.50;99.90
45849;DHT22;31567;54.600;9.842;2024-02-28T11:21:16;6.60;99.90
45849;DHT22;31567;54.600;9.842;2024-02-28T11:24:56;6.70;99.90
45849;DHT22;31567;54.600;9.842;2024-02-28T11:28:36;6.70;99.90
45849;DHT22;31567;54.600;9.842;2024-02-28T11:32:15;6.80;99.90
45849;DHT22;31567;54.600;9.842;2024-02-28T11:35:56;6.80;99.90
45849;DHT22;31567;54.600;9.842;2024-02-28T11:39:36;6.90;99.90
45849;DHT22;31567;54.600;9.842;2024-02-28T11:43:15;6.90;99.90
45849;DHT22;31567;54.600;9.842;2024-02-28T11:46:55;6.90;99.90
45849;DHT22;31567;54.600;9.842;2024-02-28T11:50:37;6.90;99.90
45849;DHT22;31567;54.600;9.842;2024-02-28T11:54:16;6.90;99.90
45849;DHT22;31567;54.600;9.842;2024-02-28T11:57:56;7.00;99.90
45849;DHT22;31567;54.600;9.842;2024-02-28T12:01:36;7.00;99.90
45849;DHT22;31567;54.600;9.842;2024-02-28T12:05:19;7.10;99.90
45849;DHT22;31567;54.600;9.842;2024-02-28T12:08:59;7.10;99.90
45849;DHT22;31567;54.600;9.842;2024-02-28T12:12:39;7.20;99.90
45849;DHT22;31567;54.600;9.842;2024-02-28T12:16:26;7.30;99.90
45849;DHT22;31567;54.600;9.842;2024-02-28T12:20:07;7.30;99.90
45849;DHT22;31567;54.600;9.842;2024-02-28T12:23:47;7.40;99.90
45849;DHT22;31567;54.600;9.842;2024-02-28T12:27:30;7.50;99.90
45849;DHT22;31567;54.600;9.842;2024-02-28T12:31:10;7.60;99.90
45849;DHT22;31567;54.600;9.842;2024-02-28T12:34:51;7.70;99.90
45849;DHT22;31567;54.600;9.842;2024-02-28T12:38:31;7.70;99.90
45849;DHT22;31567;54.600;9.842;2024-02-28T12:42:10;7.70;99.90
45849;DHT22;31567;54.600;9.842;2024-02-28T12:45:50;7.70;99.90
45849;DHT22;31567;54.600;9.842;2024-02-28T12:49:29;7.70;99.90
45849;DHT22;31567;54.600;9.842;2024-02-28T12:53:09;7.70;99.90
45849;DHT22;31567;54.600;9.842;2024-02-28T12:56:49;7.80;99.90
45849;DHT22;31567;54.600;9.842;2024-02-28T13:00:29;7.90;99.90
45849;DHT22;31567;54.600;9.842;2024-02-28T13:04:08;7.90;99.90
45849;DHT22;31567;54.600;9.842;2024-02-28T13:07:48;7.90;99.90
45849;DHT22;31567;54.600;9.842;2024-02-28T13:11:28;8.00;99.90
45849;DHT22;31567;54.600;9.842;2024-02-28T13:15:07;7.90;99.90
45849;DHT22;31567;54.600;9.842;2024-02-28T13:18:47;8.00;99.90
45849;DHT22;31567;54.600;9.842;2024-02-28T13:22:27;7.90;99.90
45849;DHT22;31567;54.600;9.842;2024-02-28T13:26:07;8.10;99.90
45849;DHT22;31567;54.600;9.842;2024-02-28T13:29:46;7.90;99.90
45849;DHT22;31567;54.600;9.842;2024-02-28T13:33:26;8.00;99.90
45849;DHT22;31567;54.600;9.842;2024-02-28T13:37:06;8.00;99.90
45849;DHT22;31567;54.600;9.842;2024-02-28T13:40:47;7.90;99.90
45849;DHT22;31567;54.600;9.842;2024-02-28T13:44:26;8.00;99.90
45849;DHT22;31567;54.600;9.842;2024-02-28T13:48:16;8.10;99.90
45849;DHT22;31567;54.600;9.842;2024-02-28T13:51:56;8.30;99.90
45849;DHT22;31567;54.600;9.842;2024-02-28T13:55:36;8.20;99.90
45849;DHT22;31567;54.600;9.842;2024-02-28T13:59:15;8.30;99.90
45849;DHT22;31567;54.600;9.842;2024-02-28T14:02:55;8.20;99.90
45849;DHT22;31567;54.600;9.842;2024-02-28T14:06:34;8.10;99.90
45849;DHT22;31567;54.600;9.842;2024-02-28T14:10:15;8.10;99.90
45849;DHT22;31567;54.600;9.842;2024-02-28T14:13:55;8.00;99.90
45849;DHT22;31567;54.600;9.842;2024-02-28T14:17:35;8.00;99.90
45849;DHT22;31567;54.600;9.842;2024-02-28T14:21:15;8.00;99.90
45849;DHT22;31567;54.600;9.842;2024-02-28T14:24:54;8.00;99.90
45849;DHT22;31567;54.600;9.842;2024-02-28T14:28:34;7.90;99.90
45849;DHT22;31567;54.600;9.842;2024-02-28T14:32:15;7.80;99.90
45849;DHT22;31567;54.600;9.842;2024-02-28T14:35:54;7.80;99.90
45849;DHT22;31567;54.600;9.842;2024-02-28T14:39:34;7.80;99.90
45849;DHT22;31567;54.600;9.842;2024-02-28T14:43:14;7.90;99.90
45849;DHT22;31567;54.600;9.842;2024-02-28T14:46:53;7.90;99.90
45849;DHT22;31567;54.600;9.842;2024-02-28T14:50:33;7.90;99.90
45849;DHT22;31567;54.600;9.842;2024-02-28T14:54:12;7.90;99.90
45849;DHT22;31567;54.600;9.842;2024-02-28T14:57:52;7.90;99.90
45849;DHT22;31567;54.600;9.842;2024-02-28T15:01:32;7.90;99.90
45849;DHT22;31567;54.600;9.842;2024-02-28T15:05:12;8.00;99.90
45849;DHT22;31567;54.600;9.842;2024-02-28T15:08:51;8.00;99.90
45849;DHT22;31567;54.600;9.842;2024-02-28T15:12:31;7.90;99.90
45849;DHT22;31567;54.600;9.842;2024-02-28T15:16:13;7.90;99.90
45849;DHT22;31567;54.600;9.842;2024-02-28T15:19:52;7.90;99.90
45849;DHT22;31567;54.600;9.842;2024-02-28T15:23:33;8.00;99.90
45849;DHT22;31567;54.600;9.842;2024-02-28T15:27:13;8.00;99.90
45849;DHT22;31567;54.600;9.842;2024-02-28T15:30:52;8.00;99.90
45849;DHT22;31567;54.600;9.842;2024-02-28T15:34:32;8.00;99.90
45849;DHT22;31567;54.600;9.842;2024-02-28T15:38:12;8.00;99.90
45849;DHT22;31567;54.600;9.842;2024-02-28T15:41:52;7.90;99.90
45849;DHT22;31567;54.600;9.842;2024-02-28T15:45:32;7.90;99.90
45849;DHT22;31567;54.600;9.842;2024-02-28T15:49:11;7.90;99.90
45849;DHT22;31567;54.600;9.842;2024-02-28T15:52:51;7.90;99.90
45849;DHT22;31567;54.600;9.842;2024-02-28T15:56:30;7.90;99.90
45849;DHT22;31567;54.600;9.842;2024-02-28T16:00:10;7.80;99.90
45849;DHT22;31567;54.600;9.842;2024-02-28T16:03:50;7.80;99.90
45849;DHT22;31567;54.600;9.842;2024-02-28T16:07:29;7.80;99.90
45849;DHT22;31567;54.600;9.842;2024-02-28T16:11:10;7.80;99.90
45849;DHT22;31567;54.600;9.842;2024-02-28T16:14:50;7.80;99.90
45849;DHT22;31567;54.600;9.842;2024-02-28T16:18:29;7.70;99.90
45849;DHT22;31567;54.600;9.842;2024-02-28T16:22:09;7.70;99.90
45849;DHT22;31567;54.600;9.842;2024-02-28T16:25:49;7.70;99.90
45849;DHT22;31567;54.600;9.842;2024-02-28T16:29:34;7.70;99.90
45849;DHT22;31567;54.600;9.842;2024-02-28T16:33:14;7.70;99.90
45849;DHT22;31567;54.600;9.842;2024-02-28T16:36:55;7.60;99.90
45849;DHT22;31567;54.600;9.842;2024-02-28T16:40:36;7.60;99.90
45849;DHT22;31567;54.600;9.842;2024-02-28T16:44:16;7.60;99.90
45849;DHT22;31567;54.600;9.842;2024-02-28T16:47:56;7.60;99.90
45849;DHT22;31567;54.600;9.842;2024-02-28T16:51:35;7.60;99.90
45849;DHT22;31567;54.600;9.842;2024-02-28T16:55:15;7.60;99.90
45849;DHT22;31567;54.600;9.842;2024-02-28T16:58:54;7.60;99.90
45849;DHT22;31567;54.600;9.842;2024-02-28T17:02:37;7.60;99.90
45849;DHT22;31567;54.600;9.842;2024-02-28T17:06:17;7.50;99.90
45849;DHT22;31567;54.600;9.842;2024-02-28T17:09:57;7.50;99.90
45849;DHT22;31567;54.600;9.842;2024-02-28T17:13:36;7.50;99.90
45849;DHT22;31567;54.600;9.842;2024-02-28T17:17:17;7.60;99.90
45849;DHT22;31567;54.600;9.842;2024-02-28T17:21:00;7.50;99.90
45849;DHT22;31567;54.600;9.842;2024-02-28T17:24:40;7.60;99.90
45849;DHT22;31567;54.600;9.842;2024-02-28T17:28:20;7.50;99.90
45849;DHT22;31567;54.600;9.842;2024-02-28T17:31:59;7.50;99.90
45849;DHT22;31567;54.600;9.842;2024-02-28T17:35:39;7.50;99.90
45849;DHT22;31567;54.600;9.842;2024-02-28T17:39:20;7.50;99.90
45849;DHT22;31567;54.600;9.842;2024-02-28T17:43:00;7.40;99.90
45849;DHT22;31567;54.600;9.842;2024-02-28T17:46:40;7.40;99.90
45849;DHT22;31567;54.600;9.842;2024-02-28T17:50:20;7.40;99.90
45849;DHT22;31567;54.600;9.842;2024-02-28T17:53:59;7.30;99.90
45849;DHT22;31567;54.600;9.842;2024-02-28T17:57:39;7.30;99.90
45849;DHT22;31567;54.600;9.842;2024-02-28T18:01:18;7.30;99.90
45849;DHT22;31567;54.600;9.842;2024-02-28T18:04:58;7.30;99.90
45849;DHT22;31567;54.600;9.842;2024-02-28T18:08:37;7.30;99.90
45849;DHT22;31567;54.600;9.842;2024-02-28T18:12:17;7.30;99.90
45849;DHT22;31567;54.600;9.842;2024-02-28T18:15:57;7.40;99.90
45849;DHT22;31567;54.600;9.842;2024-02-28T18:19:37;7.50;99.90
45849;DHT22;31567;54.600;9.842;2024-02-28T18:23:17;7.60;99.90
45849;DHT22;31567;54.600;9.842;2024-02-28T18:26:57;7.60;99.90
45849;DHT22;31567;54.600;9.842;2024-02-28T18:30:36;7.50;99.90
45849;DHT22;31567;54.600;9.842;2024-02-28T18:34:16;7.60;99.90
45849;DHT22;31567;54.600;9.842;2024-02-28T18:37:55;7.60;99.90
45849;DHT22;31567;54.600;9.842;2024-02-28T18:41:35;7.70;99.90
45849;DHT22;31567;54.600;9.842;2024-02-28T18:45:14;7.70;99.90
45849;DHT22;31567;54.600;9.842;2024-02-28T18:48:54;7.70;99.90
45849;DHT22;31567;54.600;9.842;2024-02-28T18:52:33;7.70;99.90
45849;DHT22;31567;54.600;9.842;2024-02-28T18:56:13;7.70;99.90
45849;DHT22;31567;54.600;9.842;2024-02-28T18:59:53;7.70;99.90
45849;DHT22;31567;54.600;9.842;2024-02-28T19:03:33;7.70;99.90
45849;DHT22;31567;54.600;9.842;2024-02-28T19:07:13;7.70;99.90
45849;DHT22;31567;54.600;9.842;2024-02-28T19:10:52;7.70;99.90
45849;DHT22;31567;54.600;9.842;2024-02-28T19:14:32;7.70;99.90
45849;DHT22;31567;54.600;9.842;2024-02-28T19:18:12;7.70;99.90
45849;DHT22;31567;54.600;9.842;2024-02-28T19:21:52;7.70;99.90
45849;DHT22;31567;54.600;9.842;2024-02-28T19:25:31;7.80;99.90
45849;DHT22;31567;54.600;9.842;2024-02-28T19:29:11;7.70;99.90
45849;DHT22;31567;54.600;9.842;2024-02-28T19:32:52;7.70;99.90
45849;DHT22;31567;54.600;9.842;2024-02-28T19:36:34;7.70;99.90
45849;DHT22;31567;54.600;9.842;2024-02-28T19:40:14;7.70;99.90
45849;DHT22;31567;54.600;9.842;2024-02-28T19:43:53;7.70;99.90
45849;DHT22;31567;54.600;9.842;2024-02-28T19:47:34;7.70;99.90
45849;DHT22;31567;54.600;9.842;2024-02-28T19:51:13;7.70;99.90
45849;DHT22;31567;54.600;9.842;2024-02-28T19:54:55;7.60;99.90
45849;DHT22;31567;54.600;9.842;2024-02-28T19:58:35;7.60;99.90
45849;DHT22;31567;54.600;9.842;2024-02-28T20:02:14;7.50;99.90
45849;DHT22;31567;54.600;9.842;2024-02-28T20:05:54;7.60;99.90
45849;DHT22;31567;54.600;9.842;2024-02-28T20:09:33;7.50;99.90
45849;DHT22;31567;54.600;9.842;2024-02-28T20:13:16;7.50;99.90
45849;DHT22;31567;54.600;9.842;2024-02-28T20:16:56;7.40;99.90
45849;DHT22;31567;54.600;9.842;2024-02-28T20:20:35;7.40;99.90
45849;DHT22;31567;54.600;9.842;2024-02-28T20:24:15;7.40;99.90
45849;DHT22;31567;54.600;9.842;2024-02-28T20:27:55;7.40;99.90
45849;DHT22;31567;54.600;9.842;2024-02-28T20:31:34;7.40;99.90
45849;DHT22;31567;54.600;9.842;2024-02-28T20:35:14;7.50;99.90
45849;DHT22;31567;54.600;9.842;2024-02-28T20:38:54;7.50;99.90
45849;DHT22;31567;54.600;9.842;2024-02-28T20:42:40;7.50;99.90
45849;DHT22;31567;54.600;9.842;2024-02-28T20:46:20;7.50;99.90
45849;DHT22;31567;54.600;9.842;2024-02-28T20:50:01;7.50;99.90
45849;DHT22;31567;54.600;9.842;2024-02-28T20:53:44;7.40;99.90
45849;DHT22;31567;54.600;9.842;2024-02-28T20:57:32;7.50;99.90
45849;DHT22;31567;54.600;9.842;2024-02-28T21:01:11;7.50;99.90
45849;DHT22;31567;54.600;9.842;2024-02-28T21:04:51;7.50;99.90
45849;DHT22;31567;54.600;9.842;2024-02-28T21:08:31;7.50;99.90
45849;DHT22;31567;54.600;9.842;2024-02-28T21:12:11;7.50;99.90
45849;DHT22;31567;54.600;9.842;2024-02-28T21:15:53;7.50;99.90
45849;DHT22;31567;54.600;9.842;2024-02-28T21:19:32;7.50;99.90
45849;DHT22;31567;54.600;9.842;2024-02-28T21:23:12;7.60;99.90
45849;DHT22;31567;54.600;9.842;2024-02-28T21:26:52;7.60;99.90
45849;DHT22;31567;54.600;9.842;2024-02-28T21:30:32;7.60;99.90
45849;DHT22;31567;54.600;9.842;2024-02-28T21:34:11;7.50;99.90
45849;DHT22;31567;54.600;9.842;2024-02-28T21:37:51;7.60;99.90
45849;DHT22;31567;54.600;9.842;2024-02-28T21:41:31;7.60;99.90
45849;DHT22;31567;54.600;9.842;2024-02-28T21:45:10;7.60;99.90
45849;DHT22;31567;54.600;9.842;2024-02-28T21:48:50;7.60;99.90
45849;DHT22;31567;54.600;9.842;2024-02-28T21:52:30;7.70;99.90
45849;DHT22;31567;54.600;9.842;2024-02-28T21:56:09;7.60;99.90
45849;DHT22;31567;54.600;9.842;2024-02-28T21:59:49;7.70;99.90
45849;DHT22;31567;54.600;9.842;2024-02-28T22:03:29;7.80;99.90
45849;DHT22;31567;54.600;9.842;2024-02-28T22:07:08;7.80;99.90
45849;DHT22;31567;54.600;9.842;2024-02-28T22:10:48;7.80;99.90
45849;DHT22;31567;54.600;9.842;2024-02-28T22:14:27;7.80;99.90
45849;DHT22;31567;54.600;9.842;2024-02-28T22:18:07;7.80;99.90
45849;DHT22;31567;54.600;9.842;2024-02-28T22:21:46;7.80;99.90
45849;DHT22;31567;54.600;9.842;2024-02-28T22:25:27;7.80;99.90
45849;DHT22;31567;54.600;9.842;2024-02-28T22:29:06;7.90;99.90
45849;DHT22;31567;54.600;9.842;2024-02-28T22:32:46;7.90;99.90
45849;DHT22;31567;54.600;9.842;2024-02-28T22:36:25;7.90;99.90
45849;DHT22;31567;54.600;9.842;2024-02-28T22:40:05;7.90;99.90
45849;DHT22;31567;54.600;9.842;2024-02-28T22:43:46;7.90;99.90
45849;DHT22;31567;54.600;9.842;2024-02-28T22:47:25;7.90;99.90
45849;DHT22;31567;54.600;9.842;2024-02-28T22:51:05;7.80;99.90
45849;DHT22;31567;54.600;9.842;2024-02-28T22:54:44;7.90;99.90
45849;DHT22;31567;54.600;9.842;2024-02-28T22:58:24;7.80;99.90
45849;DHT22;31567;54.600;9.842;2024-02-28T23:02:04;7.80;99.90
45849;DHT22;31567;54.600;9.842;2024-02-28T23:05:43;7.80;99.90
45849;DHT22;31567;54.600;9.842;2024-02-28T23:09:23;7.80;99.90
45849;DHT22;31567;54.600;9.842;2024-02-28T23:13:02;7.70;99.90
45849;DHT22;31567;54.600;9.842;2024-02-28T23:16:42;7.70;99.90
45849;DHT22;31567;54.600;9.842;2024-02-28T23:20:30;7.60;99.90
45849;DHT22;31567;54.600;9.842;2024-02-28T23:24:13;7.60;99.90
45849;DHT22;31567;54.600;9.842;2024-02-28T23:27:53;7.50;99.90
45849;DHT22;31567;54.600;9.842;2024-02-28T23:31:33;7.50;99.90